Terminal Aerodrome Forecast
Issued by NWS

Home | Current Version | Previous Version | Text Only | Print | Product List | Glossary On
Versions: 1 2 3 4 5 6 7 8 9 10 11 12 13 14 15 16 17 18 19 20 21 22 23
000
FTUS41 KBOX 161736
TAFHYA
TAF
KHYA 161736Z 1618/1718 35016G26KT P6SM SKC
     FM170000 03008KT P6SM FEW250
     FM171100 05013KT P6SM FEW250
     FM171500 05014KT P6SM SCT025
     FM171700 05014KT P6SM SCT250=

USA.gov is the U.S. government's official web portal to all federal, state and local government web resources and services.